createdAt,value
2023-03-30T00:01:12.149Z,59.50
2023-03-30T00:03:44.930Z,59.16
2023-03-30T00:06:21.077Z,59.27
2023-03-30T00:08:49.944Z,59.56
2023-03-30T00:11:18.239Z,59.51
2023-03-30T00:13:47.067Z,59.07
2023-03-30T00:16:15.242Z,59.08
2023-03-30T00:18:45.153Z,59.83
2023-03-30T00:21:21.013Z,59.75
2023-03-30T00:23:52.234Z,59.56
2023-03-30T00:26:20.464Z,60.01
2023-03-30T00:28:48.427Z,60.09
2023-03-30T00:31:17.274Z,59.69
2023-03-30T00:33:47.414Z,59.44
2023-03-30T00:36:17.579Z,59.82
2023-03-30T00:38:48.492Z,60.41
2023-03-30T00:41:17.936Z,59.60
2023-03-30T00:44:03.079Z,59.63
2023-03-30T00:46:32.086Z,59.98
2023-03-30T00:49:09.626Z,60.36
2023-03-30T00:51:43.345Z,59.61
2023-03-30T00:55:25.054Z,60.66
2023-03-30T00:57:53.419Z,60.02
2023-03-30T01:00:23.936Z,59.61
2023-03-30T01:02:59.030Z,59.10
2023-03-30T01:05:28.440Z,59.62
2023-03-30T01:07:58.554Z,60.11
2023-03-30T01:10:47.023Z,59.20
2023-03-30T01:13:15.343Z,59.08
2023-03-30T01:16:01.885Z,59.81
2023-03-30T01:18:35.948Z,59.70
2023-03-30T01:21:10.174Z,58.99
2023-03-30T01:23:58.981Z,59.27
2023-03-30T01:26:54.277Z,59.67
2023-03-30T01:29:40.433Z,59.30
2023-03-30T01:32:33.614Z,59.12
2023-03-30T01:35:23.290Z,59.36
2023-03-30T01:38:04.440Z,59.75
2023-03-30T01:40:48.894Z,59.10
2023-03-30T01:43:35.543Z,59.20
2023-03-30T01:46:15.054Z,59.54
2023-03-30T01:49:10.871Z,59.38
2023-03-30T01:51:44.051Z,58.71
2023-03-30T01:54:21.465Z,58.72
2023-03-30T01:57:00.185Z,59.18
2023-03-30T01:59:41.950Z,59.03
2023-03-30T02:02:11.560Z,58.44
2023-03-30T02:04:42.007Z,58.96
2023-03-30T02:07:12.785Z,59.28
2023-03-30T02:09:41.760Z,58.94
2023-03-30T02:12:10.435Z,58.81
2023-03-30T02:14:42.123Z,59.24
2023-03-30T02:17:13.764Z,59.53
2023-03-30T02:19:42.419Z,58.95
2023-03-30T02:22:18.803Z,58.73
2023-03-30T02:24:48.560Z,59.22
2023-03-30T02:27:19.975Z,59.28
2023-03-30T02:29:50.458Z,58.68
2023-03-30T02:32:23.629Z,58.79
2023-03-30T02:35:13.670Z,59.07
2023-03-30T02:37:46.936Z,59.48
2023-03-30T02:40:35.060Z,58.24
2023-03-30T02:43:10.475Z,58.84
2023-03-30T02:45:44.613Z,59.29
2023-03-30T02:48:18.384Z,59.54
2023-03-30T02:50:47.243Z,59.22
2023-03-30T02:54:01.583Z,59.15
2023-03-30T02:57:31.317Z,59.42
2023-03-30T03:00:22.316Z,58.87
2023-03-30T03:02:54.305Z,58.93
2023-03-30T03:05:26.516Z,59.34
2023-03-30T03:08:06.560Z,59.73
2023-03-30T03:10:37.055Z,59.06
2023-03-30T03:13:09.060Z,58.97
2023-03-30T03:15:38.901Z,59.45
2023-03-30T03:18:10.685Z,59.74
2023-03-30T03:20:41.263Z,59.19
2023-03-30T03:23:10.863Z,58.78
2023-03-30T03:25:50.924Z,59.44
2023-03-30T03:28:21.511Z,59.68
2023-03-30T03:30:53.367Z,59.51
2023-03-30T03:33:27.817Z,59.35
2023-03-30T03:36:01.187Z,59.81
2023-03-30T03:38:31.102Z,59.79
2023-03-30T03:41:00.666Z,59.84
2023-03-30T03:43:28.935Z,59.19
2023-03-30T03:45:57.589Z,59.61
2023-03-30T03:48:26.100Z,59.68
2023-03-30T03:50:56.167Z,59.87
2023-03-30T03:53:25.582Z,59.29
2023-03-30T03:55:57.403Z,59.52
2023-03-30T03:58:27.935Z,60.00
2023-03-30T04:01:00.270Z,59.78
2023-03-30T04:03:34.850Z,59.30
2023-03-30T04:06:04.572Z,59.24
2023-03-30T04:08:36.591Z,59.78
2023-03-30T04:11:43.879Z,60.06
2023-03-30T04:14:31.582Z,59.11
2023-03-30T04:17:15.057Z,58.97
2023-03-30T04:20:12.678Z,59.57
2023-03-30T04:23:16.499Z,59.47
2023-03-30T04:26:17.727Z,58.19
2023-03-30T04:29:23.435Z,58.63
2023-03-30T04:32:20.846Z,57.72
2023-03-30T04:35:08.988Z,56.56
2023-03-30T04:38:01.254Z,55.75
2023-03-30T04:41:06.645Z,55.34
2023-03-30T04:43:51.026Z,55.92
2023-03-30T04:46:21.921Z,55.92
2023-03-30T04:49:10.717Z,56.65
2023-03-30T04:51:56.659Z,56.88
2023-03-30T04:55:02.298Z,55.24
2023-03-30T04:57:49.060Z,54.33
2023-03-30T05:00:52.239Z,53.25
2023-03-30T05:03:45.736Z,54.20
2023-03-30T05:06:49.848Z,54.36
2023-03-30T05:09:24.180Z,54.97
2023-03-30T05:12:05.097Z,55.30
2023-03-30T05:14:49.325Z,54.82
2023-03-30T05:17:43.385Z,55.56
2023-03-30T05:20:18.372Z,55.26
2023-03-30T05:23:06.976Z,54.98
2023-03-30T05:25:55.402Z,55.78
2023-03-30T05:29:02.349Z,55.40
2023-03-30T05:32:03.447Z,55.12
2023-03-30T05:34:41.279Z,55.58
2023-03-30T05:37:50.317Z,55.39
2023-03-30T05:40:54.169Z,54.12
2023-03-30T05:43:29.676Z,55.15
2023-03-30T05:46:21.670Z,55.34
2023-03-30T05:48:50.313Z,54.79
2023-03-30T05:51:25.183Z,54.20
2023-03-30T05:54:19.501Z,53.93
2023-03-30T05:57:00.119Z,54.11
2023-03-30T05:59:40.395Z,54.24
2023-03-30T06:02:39.181Z,53.66
2023-03-30T06:05:12.181Z,53.95
2023-03-30T06:07:43.529Z,53.31
2023-03-30T06:10:14.683Z,53.68
2023-03-30T06:12:43.769Z,54.30
2023-03-30T06:15:22.411Z,53.39
2023-03-30T06:18:04.094Z,52.59
2023-03-30T06:20:33.956Z,52.25
2023-03-30T06:23:02.753Z,52.82
2023-03-30T06:25:32.254Z,52.45
2023-03-30T06:28:00.961Z,52.22
2023-03-30T06:30:29.444Z,51.48
2023-03-30T06:33:01.548Z,50.60
2023-03-30T06:35:50.236Z,51.03
2023-03-30T06:38:22.061Z,50.58
2023-03-30T06:40:52.565Z,51.35
2023-03-30T06:43:24.612Z,50.21
2023-03-30T06:46:13.890Z,49.61
2023-03-30T06:48:45.726Z,49.01
2023-03-30T06:51:35.440Z,48.94
2023-03-30T06:54:04.260Z,47.92
2023-03-30T06:56:32.733Z,47.74
2023-03-30T06:59:10.013Z,47.90
2023-03-30T07:02:01.341Z,46.54
2023-03-30T07:05:08.101Z,46.39
2023-03-30T07:07:52.636Z,46.37
2023-03-30T07:10:21.813Z,46.11
2023-03-30T07:12:49.934Z,45.26
2023-03-30T07:15:18.577Z,45.39
2023-03-30T07:17:47.118Z,45.02
2023-03-30T07:20:19.451Z,45.34
2023-03-30T07:23:11.529Z,44.46
2023-03-30T07:25:41.309Z,43.82
2023-03-30T07:28:23.819Z,43.86
2023-03-30T07:30:53.549Z,43.76
2023-03-30T07:33:23.440Z,43.28
2023-03-30T07:35:53.129Z,44.07
2023-03-30T07:38:24.116Z,44.69
2023-03-30T07:40:54.197Z,43.94
2023-03-30T07:43:27.170Z,43.02
2023-03-30T07:45:57.818Z,43.45
2023-03-30T07:48:32.706Z,43.71
2023-03-30T07:51:19.799Z,43.16
2023-03-30T07:54:05.082Z,42.33
2023-03-30T07:56:45.075Z,42.88
2023-03-30T07:59:14.213Z,43.28
2023-03-30T08:01:52.188Z,42.91
2023-03-30T08:04:44.709Z,43.16
2023-03-30T08:07:14.524Z,42.22
2023-03-30T08:09:45.957Z,42.59
2023-03-30T08:12:14.773Z,42.26
2023-03-30T08:14:42.845Z,41.83
2023-03-30T08:17:10.834Z,42.21
2023-03-30T08:19:41.269Z,41.40
2023-03-30T08:22:10.672Z,40.15
2023-03-30T08:24:40.064Z,40.44
2023-03-30T08:27:08.784Z,39.70
2023-03-30T08:29:36.959Z,39.98
2023-03-30T08:32:04.971Z,40.75
2023-03-30T08:34:35.397Z,40.01
2023-03-30T08:37:05.782Z,39.18
2023-03-30T08:39:38.767Z,39.78
2023-03-30T08:42:06.908Z,39.32
2023-03-30T08:44:39.880Z,39.44
2023-03-30T08:47:20.568Z,39.09
2023-03-30T08:50:02.980Z,39.32
2023-03-30T08:52:34.114Z,39.63
2023-03-30T08:55:04.500Z,39.66
2023-03-30T08:58:06.672Z,39.18
2023-03-30T09:01:14.505Z,39.65
2023-03-30T09:03:48.372Z,39.37
2023-03-30T09:06:24.328Z,39.47
2023-03-30T09:08:52.647Z,40.13
2023-03-30T09:11:30.417Z,40.66
2023-03-30T09:14:03.039Z,40.22
2023-03-30T09:16:35.533Z,40.00
2023-03-30T09:19:10.120Z,39.78
2023-03-30T09:21:39.057Z,40.97
2023-03-30T09:24:13.372Z,41.37
2023-03-30T09:26:50.456Z,41.59
2023-03-30T09:29:22.314Z,40.10
2023-03-30T09:32:15.264Z,38.83
2023-03-30T09:34:50.486Z,39.75
2023-03-30T09:37:18.863Z,39.95
2023-03-30T09:39:47.942Z,39.91
2023-03-30T09:42:49.002Z,39.25
2023-03-30T09:45:21.634Z,36.74
2023-03-30T09:47:50.880Z,37.12
2023-03-30T09:50:23.331Z,37.59
2023-03-30T09:53:07.316Z,38.32
2023-03-30T09:55:35.765Z,37.20
2023-03-30T09:58:11.645Z,36.16
2023-03-30T10:00:40.038Z,36.82
2023-03-30T10:03:22.962Z,36.51
2023-03-30T10:06:13.375Z,36.08
2023-03-30T10:08:49.450Z,34.43
2023-03-30T10:11:21.747Z,34.40
2023-03-30T10:13:50.332Z,34.55
2023-03-30T10:16:27.171Z,35.02
2023-03-30T10:19:01.925Z,34.98
2023-03-30T10:21:48.420Z,35.42
2023-03-30T10:24:24.329Z,35.99
2023-03-30T10:26:58.820Z,36.69
2023-03-30T10:29:28.482Z,35.38
2023-03-30T10:32:09.197Z,32.25
2023-03-30T10:34:41.272Z,32.30
2023-03-30T10:37:15.686Z,32.74
2023-03-30T10:39:44.169Z,33.94
2023-03-30T10:42:16.072Z,34.57
2023-03-30T10:45:00.892Z,35.88
2023-03-30T10:47:38.651Z,35.26
2023-03-30T10:50:27.015Z,34.85
2023-03-30T10:53:33.863Z,34.31
2023-03-30T10:56:38.371Z,34.04
2023-03-30T10:59:22.312Z,34.45
2023-03-30T11:02:12.014Z,33.71
2023-03-30T11:04:59.937Z,34.13
2023-03-30T11:07:53.872Z,34.37
2023-03-30T11:10:31.573Z,34.38
2023-03-30T11:13:02.783Z,34.09
2023-03-30T11:15:42.977Z,34.37
2023-03-30T11:18:18.080Z,35.24
2023-03-30T11:21:33.760Z,35.49
2023-03-30T11:24:09.883Z,35.12
2023-03-30T11:26:40.908Z,34.69
2023-03-30T11:29:30.240Z,35.00
2023-03-30T11:32:33.791Z,34.51
2023-03-30T11:35:11.572Z,33.77
2023-03-30T11:37:53.184Z,33.93
2023-03-30T11:40:32.530Z,35.25
2023-03-30T11:43:01.274Z,35.72
2023-03-30T11:46:12.497Z,34.59
2023-03-30T11:48:59.049Z,34.60
2023-03-30T11:51:55.121Z,34.44
2023-03-30T11:55:03.669Z,34.50
2023-03-30T11:57:37.276Z,33.61
2023-03-30T12:00:11.342Z,34.23
2023-03-30T12:02:46.777Z,34.04
2023-03-30T12:05:32.341Z,34.30
2023-03-30T12:08:14.690Z,33.78
2023-03-30T12:10:43.484Z,33.93
2023-03-30T12:13:15.565Z,33.84
2023-03-30T12:15:55.768Z,33.78
2023-03-30T12:18:29.726Z,33.33
2023-03-30T12:21:17.830Z,33.35
2023-03-30T12:23:49.994Z,32.80
2023-03-30T12:26:25.456Z,33.10
2023-03-30T12:29:04.969Z,33.03
2023-03-30T12:32:03.575Z,32.61
2023-03-30T12:34:34.651Z,33.45
2023-03-30T12:37:24.318Z,33.17
2023-03-30T12:39:59.258Z,32.72
2023-03-30T12:42:34.765Z,33.15
2023-03-30T12:45:15.636Z,32.31
2023-03-30T12:48:10.152Z,32.88
2023-03-30T12:50:55.685Z,33.17
2023-03-30T12:53:36.376Z,33.22
2023-03-30T12:56:05.097Z,31.70
2023-03-30T12:59:08.392Z,31.42
2023-03-30T13:01:56.144Z,31.75
2023-03-30T13:04:25.643Z,31.98
2023-03-30T13:06:58.438Z,32.19
2023-03-30T13:09:30.566Z,31.90
2023-03-30T13:13:24.875Z,31.82
2023-03-30T13:15:57.949Z,31.28
2023-03-30T13:18:29.083Z,31.04
2023-03-30T13:21:16.084Z,31.48
2023-03-30T13:23:45.466Z,31.21
2023-03-30T13:26:35.171Z,31.02
2023-03-30T13:29:04.664Z,31.48
2023-03-30T13:32:04.806Z,30.46
2023-03-30T13:35:03.028Z,30.88
2023-03-30T13:38:13.263Z,30.42
2023-03-30T13:40:57.797Z,30.88
2023-03-30T13:43:51.253Z,30.57
2023-03-30T13:46:19.409Z,30.19
2023-03-30T13:49:03.850Z,30.95
2023-03-30T13:51:31.955Z,30.98
2023-03-30T13:54:05.474Z,30.63
2023-03-30T13:56:37.985Z,29.64
2023-03-30T13:59:15.630Z,28.64
2023-03-30T14:01:52.964Z,28.79
2023-03-30T14:04:20.971Z,29.64
2023-03-30T14:06:51.425Z,29.57
2023-03-30T14:09:22.721Z,29.58
2023-03-30T14:11:57.301Z,30.20
2023-03-30T14:14:37.054Z,30.02
2023-03-30T14:17:18.882Z,30.18
2023-03-30T14:20:21.105Z,30.72
2023-03-30T14:22:50.407Z,30.20
2023-03-30T14:25:23.272Z,29.31
2023-03-30T14:28:11.407Z,29.75
2023-03-30T14:30:51.544Z,29.81
2023-03-30T14:33:19.962Z,30.31
2023-03-30T14:35:50.119Z,30.24
2023-03-30T14:38:22.771Z,30.56
2023-03-30T14:40:51.658Z,30.54
2023-03-30T14:43:28.974Z,30.51
2023-03-30T14:46:00.169Z,29.57
2023-03-30T14:48:49.249Z,29.81
2023-03-30T14:51:21.447Z,29.69
2023-03-30T14:53:51.278Z,29.67
2023-03-30T14:56:22.785Z,29.14
2023-03-30T14:58:52.118Z,29.21
2023-03-30T15:01:24.958Z,29.74
2023-03-30T15:03:54.109Z,29.55
2023-03-30T15:06:24.718Z,29.67
2023-03-30T15:08:53.460Z,29.22
2023-03-30T15:11:26.241Z,30.07
2023-03-30T15:13:57.960Z,29.64
2023-03-30T15:16:28.440Z,29.73
2023-03-30T15:19:21.589Z,29.09
2023-03-30T15:21:51.426Z,28.59
2023-03-30T15:24:23.517Z,28.93
2023-03-30T15:26:52.260Z,28.84
2023-03-30T15:29:20.690Z,29.26
2023-03-30T15:32:09.250Z,28.97
2023-03-30T15:34:37.566Z,29.53
2023-03-30T15:51:09.871Z,32.34
2023-03-30T15:58:05.450Z,32.95
2023-03-30T16:00:34.465Z,32.92
2023-03-30T16:03:04.198Z,32.98
2023-03-30T16:05:36.882Z,33.16
2023-03-30T16:08:05.720Z,33.39
2023-03-30T16:10:38.404Z,33.64
2023-03-30T16:13:11.680Z,34.38
2023-03-30T16:15:39.794Z,34.89
2023-03-30T16:18:12.843Z,35.25
2023-03-30T16:20:41.577Z,35.73
2023-03-30T16:23:09.633Z,36.28
2023-03-30T16:28:17.291Z,37.45
2023-03-30T16:30:53.073Z,37.51
2023-03-30T16:33:22.875Z,37.55
2023-03-30T16:35:53.394Z,37.92
2023-03-30T16:38:21.855Z,38.25
2023-03-30T16:40:55.193Z,38.71
2023-03-30T16:43:25.350Z,38.89
2023-03-30T16:45:53.998Z,39.16
2023-03-30T16:48:26.974Z,39.49
2023-03-30T16:50:57.957Z,39.74
2023-03-30T16:53:28.438Z,39.65
2023-03-30T16:55:56.505Z,39.72
2023-03-30T16:58:26.359Z,39.87
2023-03-30T17:01:03.741Z,39.85
2023-03-30T17:03:33.963Z,40.10
2023-03-30T17:06:09.265Z,40.51
2023-03-30T17:08:37.641Z,40.89
2023-03-30T17:11:08.039Z,41.07
2023-03-30T17:13:37.158Z,41.07
2023-03-30T17:16:27.539Z,41.20
2023-03-30T17:19:01.522Z,41.67
2023-03-30T17:21:29.889Z,41.76
2023-03-30T17:23:57.958Z,42.36
2023-03-30T17:26:28.682Z,42.18
2023-03-30T17:28:57.627Z,42.44
2023-03-30T17:31:27.973Z,42.77
2023-03-30T17:33:57.690Z,42.74
2023-03-30T17:36:27.005Z,42.86
2023-03-30T17:39:17.931Z,42.89
2023-03-30T17:41:46.271Z,42.80
2023-03-30T17:44:18.005Z,42.81
2023-03-30T17:46:46.471Z,42.89
2023-03-30T17:49:16.464Z,43.00
2023-03-30T17:51:45.919Z,43.14
2023-03-30T17:54:14.835Z,43.19
2023-03-30T17:56:43.468Z,43.38
2023-03-30T17:59:11.814Z,43.51
2023-03-30T18:01:40.412Z,43.73
2023-03-30T18:04:09.216Z,43.70
2023-03-30T18:06:37.800Z,43.85
2023-03-30T18:09:16.481Z,44.02
2023-03-30T18:11:45.354Z,44.04
2023-03-30T18:14:13.981Z,44.11
2023-03-30T18:16:43.685Z,44.22
2023-03-30T18:19:12.242Z,44.27
2023-03-30T18:21:40.910Z,44.54
2023-03-30T18:24:08.906Z,44.60
2023-03-30T18:26:39.822Z,44.68
2023-03-30T18:29:20.385Z,44.76
2023-03-30T18:31:49.434Z,44.82
2023-03-30T18:34:19.758Z,44.86
2023-03-30T18:36:48.408Z,44.85
2023-03-30T18:39:20.198Z,44.93
2023-03-30T18:41:49.362Z,44.97
2023-03-30T18:44:17.965Z,45.13
2023-03-30T18:46:50.254Z,45.23
2023-03-30T18:49:20.813Z,45.15
2023-03-30T18:51:48.786Z,45.10
2023-03-30T18:54:17.166Z,45.06
2023-03-30T18:56:46.136Z,44.87
2023-03-30T18:59:19.718Z,44.84
2023-03-30T19:01:51.365Z,44.82
2023-03-30T19:04:19.876Z,44.78
2023-03-30T19:06:48.140Z,44.82
2023-03-30T19:09:16.529Z,44.88
2023-03-30T19:11:44.539Z,44.82
2023-03-30T19:14:12.595Z,44.79
2023-03-30T19:16:44.195Z,44.65
2023-03-30T19:19:15.337Z,44.64
2023-03-30T19:21:46.586Z,44.51
2023-03-30T19:24:14.692Z,44.52
2023-03-30T19:26:42.840Z,44.45
2023-03-30T19:29:13.361Z,44.42
2023-03-30T19:31:42.526Z,44.37
2023-03-30T19:34:10.865Z,44.23
2023-03-30T19:36:39.221Z,44.08
2023-03-30T19:39:08.592Z,44.48
2023-03-30T19:41:38.157Z,44.85
2023-03-30T19:44:06.483Z,45.22
2023-03-30T19:46:35.161Z,45.04
2023-03-30T19:49:03.689Z,44.86
2023-03-30T19:51:33.706Z,44.78
2023-03-30T19:54:02.185Z,44.67
2023-03-30T19:56:30.779Z,44.68
2023-03-30T19:58:59.180Z,44.53
2023-03-30T20:01:27.758Z,44.46
2023-03-30T20:03:59.713Z,43.85
2023-03-30T20:06:28.136Z,43.69
2023-03-30T20:08:56.581Z,43.79
2023-03-30T20:11:25.265Z,43.68
2023-03-30T20:13:53.939Z,43.38
2023-03-30T20:16:22.364Z,43.31
2023-03-30T20:18:53.955Z,42.87
2023-03-30T20:21:24.044Z,43.07
2023-03-30T20:23:52.107Z,43.22
2023-03-30T20:26:21.388Z,43.63
2023-03-30T20:28:49.860Z,43.32
2023-03-30T20:31:18.168Z,43.17
2023-03-30T20:33:46.308Z,42.95
2023-03-30T20:36:14.204Z,42.94
2023-03-30T20:38:45.905Z,43.40
2023-03-30T20:41:14.435Z,43.58
2023-03-30T20:43:55.777Z,43.82
2023-03-30T20:46:26.550Z,43.58
2023-03-30T20:48:54.710Z,43.54
2023-03-30T20:51:22.946Z,43.49
2023-03-30T20:53:51.022Z,43.54
2023-03-30T20:56:20.238Z,43.27
2023-03-30T20:58:48.132Z,43.31
2023-03-30T21:01:18.511Z,43.08
2023-03-30T21:03:50.210Z,42.70
2023-03-30T21:06:19.841Z,42.44
2023-03-30T21:08:53.800Z,42.40
2023-03-30T21:11:22.817Z,42.43
2023-03-30T21:13:55.501Z,42.55
2023-03-30T21:16:24.106Z,42.34
2023-03-30T21:18:52.117Z,42.39
2023-03-30T21:21:22.457Z,42.57
2023-03-30T21:23:50.679Z,42.94
2023-03-30T21:26:19.659Z,43.21
2023-03-30T21:28:47.758Z,43.38
2023-03-30T21:31:17.388Z,43.60
2023-03-30T21:33:46.747Z,43.87
2023-03-30T21:36:14.720Z,43.86
2023-03-30T21:38:43.348Z,43.72
2023-03-30T21:41:16.000Z,43.91
2023-03-30T21:43:47.403Z,43.80
2023-03-30T21:46:18.258Z,43.90
2023-03-30T21:48:51.267Z,43.64
2023-03-30T21:51:24.126Z,43.50
2023-03-30T21:53:55.735Z,43.54
2023-03-30T21:56:26.001Z,43.23
2023-03-30T21:58:54.041Z,43.16
2023-03-30T22:01:26.155Z,43.33
2023-03-30T22:03:54.927Z,43.50
2023-03-30T22:06:23.645Z,43.64
2023-03-30T22:08:53.519Z,43.54
2023-03-30T22:11:23.502Z,43.47
2023-03-30T22:13:52.434Z,43.38
2023-03-30T22:16:23.014Z,43.25
2023-03-30T22:18:56.525Z,42.80
2023-03-30T22:21:26.086Z,42.69
2023-03-30T22:23:54.959Z,42.73
2023-03-30T22:26:23.702Z,42.68
2023-03-30T22:28:55.188Z,42.50
2023-03-30T22:31:23.675Z,42.58
2023-03-30T22:33:52.977Z,42.64
2023-03-30T22:36:23.193Z,42.76
2023-03-30T22:38:52.296Z,42.68
2023-03-30T22:41:24.483Z,42.38
2023-03-30T22:43:53.583Z,42.61
2023-03-30T22:46:23.032Z,42.83
2023-03-30T22:48:52.764Z,42.75
2023-03-30T22:51:28.159Z,42.80
2023-03-30T22:54:00.748Z,43.32
2023-03-30T22:56:33.106Z,43.75
2023-03-30T22:59:02.624Z,43.97
2023-03-30T23:01:32.405Z,43.90
2023-03-30T23:04:05.103Z,43.84
2023-03-30T23:06:36.845Z,44.01
2023-03-30T23:09:04.881Z,44.29
2023-03-30T23:11:34.503Z,44.57
2023-03-30T23:14:05.347Z,45.13
2023-03-30T23:16:36.136Z,45.28
2023-03-30T23:19:07.293Z,45.52
2023-03-30T23:21:36.116Z,45.88
2023-03-30T23:24:06.446Z,46.00
2023-03-30T23:26:37.125Z,45.97
2023-03-30T23:29:07.384Z,45.94
2023-03-30T23:31:36.416Z,45.86
2023-03-30T23:34:05.288Z,45.80
2023-03-30T23:36:34.971Z,45.62
2023-03-30T23:39:02.979Z,45.33
2023-03-30T23:41:31.202Z,45.12
2023-03-30T23:43:59.797Z,45.02
2023-03-30T23:46:29.103Z,45.08
2023-03-30T23:48:57.498Z,45.05
2023-03-30T23:51:25.925Z,45.09
2023-03-30T23:53:56.679Z,45.14
2023-03-30T23:56:27.858Z,45.12
2023-03-30T23:58:56.916Z,45.00
